sensor_id;sensor_type;location;lat;lon;timestamp;pressure;altitude;pressure_sealevel;temperature;humidity
17649;BME280;8943;51.110;-4.158;2024-02-15T00:00:55;100523.72;;;18.14;60.21
17649;BME280;8943;51.110;-4.158;2024-02-15T00:03:31;100519.34;;;18.13;60.35
17649;BME280;8943;51.110;-4.158;2024-02-15T00:06:02;100522.69;;;18.15;60.27
17649;BME280;8943;51.110;-4.158;2024-02-15T00:08:32;100519.66;;;18.10;60.16
17649;BME280;8943;51.110;-4.158;2024-02-15T00:11:04;100512.59;;;18.09;60.48
17649;BME280;8943;51.110;-4.158;2024-02-15T00:13:37;100507.88;;;18.11;60.42
17649;BME280;8943;51.110;-4.158;2024-02-15T00:16:34;100508.88;;;18.10;60.44
17649;BME280;8943;51.110;-4.158;2024-02-15T00:19:33;100516.97;;;18.10;60.49
17649;BME280;8943;51.110;-4.158;2024-02-15T00:22:18;100508.88;;;18.10;60.55
17649;BME280;8943;51.110;-4.158;2024-02-15T00:24:56;100508.38;;;18.07;60.35
17649;BME280;8943;51.110;-4.158;2024-02-15T00:27:43;100508.03;;;18.10;60.58
17649;BME280;8943;51.110;-4.158;2024-02-15T00:30:16;100498.09;;;18.10;60.30
17649;BME280;8943;51.110;-4.158;2024-02-15T00:32:56;100496.41;;;18.09;60.38
17649;BME280;8943;51.110;-4.158;2024-02-15T00:35:55;100512.59;;;18.09;60.50
17649;BME280;8943;51.110;-4.158;2024-02-15T00:38:44;100502.63;;;18.10;60.89
17649;BME280;8943;51.110;-4.158;2024-02-15T00:41:43;100512.75;;;18.08;60.77
17649;BME280;8943;51.110;-4.158;2024-02-15T00:44:54;100503.84;;;18.07;60.48
17649;BME280;8943;51.110;-4.158;2024-02-15T01:27:56;100489.16;;;17.93;60.87
17649;BME280;8943;51.110;-4.158;2024-02-15T01:30:25;100487.63;;;17.91;60.85
17649;BME280;8943;51.110;-4.158;2024-02-15T01:32:59;100479.19;;;17.94;60.83
17649;BME280;8943;51.110;-4.158;2024-02-15T01:35:45;100482.22;;;17.91;60.98
17649;BME280;8943;51.110;-4.158;2024-02-15T01:38:25;100475.34;;;17.96;60.93
17649;BME280;8943;51.110;-4.158;2024-02-15T01:41:05;100475.66;;;17.93;61.02
17649;BME280;8943;51.110;-4.158;2024-02-15T01:43:45;100478.19;;;17.95;61.17
17649;BME280;8943;51.110;-4.158;2024-02-15T01:46:16;100478.19;;;17.95;61.25
17649;BME280;8943;51.110;-4.158;2024-02-15T01:48:45;100479.91;;;17.96;61.23
17649;BME280;8943;51.110;-4.158;2024-02-15T01:51:15;100475.84;;;18.00;60.98
17649;BME280;8943;51.110;-4.158;2024-02-15T01:53:52;100476.19;;;17.97;61.07
17649;BME280;8943;51.110;-4.158;2024-02-15T01:56:31;100482.75;;;17.94;61.43
17649;BME280;8943;51.110;-4.158;2024-02-15T01:59:04;100476.19;;;17.97;61.20
17649;BME280;8943;51.110;-4.158;2024-02-15T03:34:14;100397.50;;;18.26;61.46
17649;BME280;8943;51.110;-4.158;2024-02-15T04:16:15;100365.63;;;18.21;61.72
17649;BME280;8943;51.110;-4.158;2024-02-15T04:21:45;100344.91;;;18.22;61.72
17649;BME280;8943;51.110;-4.158;2024-02-15T04:39:01;100350.94;;;18.32;61.93
17649;BME280;8943;51.110;-4.158;2024-02-15T04:42:46;100347.41;;;18.32;62.04
17649;BME280;8943;51.110;-4.158;2024-02-15T04:45:33;100345.38;;;18.34;61.96
17649;BME280;8943;51.110;-4.158;2024-02-15T05:00:14;100329.50;;;18.39;61.88
17649;BME280;8943;51.110;-4.158;2024-02-15T05:02:54;100339.47;;;18.38;61.87
17649;BME280;8943;51.110;-4.158;2024-02-15T05:06:27;100331.56;;;18.37;61.85
17649;BME280;8943;51.110;-4.158;2024-02-15T05:09:02;100331.75;;;18.35;61.92
17649;BME280;8943;51.110;-4.158;2024-02-15T05:11:38;100326.50;;;18.34;61.76
17649;BME280;8943;51.110;-4.158;2024-02-15T05:14:09;100324.81;;;18.33;61.72
17649;BME280;8943;51.110;-4.158;2024-02-15T05:16:45;100329.56;;;18.31;61.71
17649;BME280;8943;51.110;-4.158;2024-02-15T05:19:20;100322.13;;;18.33;61.83
17649;BME280;8943;51.110;-4.158;2024-02-15T05:21:55;100318.06;;;18.28;62.08
17649;BME280;8943;51.110;-4.158;2024-02-15T05:24:24;100316.59;;;18.26;62.17
17649;BME280;8943;51.110;-4.158;2024-02-15T05:27:00;100302.25;;;18.25;62.25
17649;BME280;8943;51.110;-4.158;2024-02-15T05:29:31;100297.19;;;18.22;62.17
17649;BME280;8943;51.110;-4.158;2024-02-15T05:32:29;100298.69;;;18.25;62.40
17649;BME280;8943;51.110;-4.158;2024-02-15T05:35:25;100297.84;;;18.24;61.95
17649;BME280;8943;51.110;-4.158;2024-02-15T05:38:07;100292.81;;;18.21;61.98
17649;BME280;8943;51.110;-4.158;2024-02-15T05:49:38;100290.78;;;18.15;62.03
17649;BME280;8943;51.110;-4.158;2024-02-15T09:51:59;100135.09;;;19.70;58.93
17649;BME280;8943;51.110;-4.158;2024-02-15T09:55:26;100137.97;;;19.83;58.35
17649;BME280;8943;51.110;-4.158;2024-02-15T09:58:18;100125.38;;;19.90;58.24
17649;BME280;8943;51.110;-4.158;2024-02-15T10:01:35;100127.41;;;20.03;57.66
17649;BME280;8943;51.110;-4.158;2024-02-15T10:31:57;100121.00;;;20.40;54.64
17649;BME280;8943;51.110;-4.158;2024-02-15T10:35:19;100123.09;;;20.23;54.54
17649;BME280;8943;51.110;-4.158;2024-02-15T16:54:39;100045.56;;;16.55;61.87
17649;BME280;8943;51.110;-4.158;2024-02-15T16:57:24;100044.22;;;16.51;61.87
17649;BME280;8943;51.110;-4.158;2024-02-15T17:00:08;100053.59;;;16.39;61.89
17649;BME280;8943;51.110;-4.158;2024-02-15T17:02:45;100054.94;;;16.27;62.45
17649;BME280;8943;51.110;-4.158;2024-02-15T17:05:14;100057.28;;;16.21;62.41
17649;BME280;8943;51.110;-4.158;2024-02-15T17:07:50;100063.66;;;16.12;62.53
17649;BME280;8943;51.110;-4.158;2024-02-15T17:10:36;100061.78;;;16.05;62.63
17649;BME280;8943;51.110;-4.158;2024-02-15T17:13:07;100067.16;;;15.96;63.04
17649;BME280;8943;51.110;-4.158;2024-02-15T17:15:36;100080.06;;;15.93;63.19
17649;BME280;8943;51.110;-4.158;2024-02-15T17:18:04;100071.47;;;15.89;62.99
17649;BME280;8943;51.110;-4.158;2024-02-15T17:20:33;100077.19;;;15.86;63.32
17649;BME280;8943;51.110;-4.158;2024-02-15T17:23:01;100084.72;;;15.83;63.47
17649;BME280;8943;51.110;-4.158;2024-02-15T17:25:30;100092.44;;;15.78;63.53
17649;BME280;8943;51.110;-4.158;2024-02-15T17:28:04;100086.53;;;15.74;63.66
17649;BME280;8943;51.110;-4.158;2024-02-15T17:30:33;100093.06;;;15.72;63.60
17649;BME280;8943;51.110;-4.158;2024-02-15T17:33:01;100091.06;;;15.74;63.64
17649;BME280;8943;51.110;-4.158;2024-02-15T17:35:35;100078.28;;;15.67;63.76
17649;BME280;8943;51.110;-4.158;2024-02-15T17:38:04;100084.66;;;15.66;63.68
17649;BME280;8943;51.110;-4.158;2024-02-15T17:40:37;100084.81;;;15.65;63.79
17649;BME280;8943;51.110;-4.158;2024-02-15T17:43:18;100086.66;;;15.64;63.64
17649;BME280;8943;51.110;-4.158;2024-02-15T17:45:46;100091.00;;;15.65;63.80
17649;BME280;8943;51.110;-4.158;2024-02-15T17:48:16;100081.97;;;15.66;63.83
17649;BME280;8943;51.110;-4.158;2024-02-15T17:50:47;100080.50;;;15.72;63.62
17649;BME280;8943;51.110;-4.158;2024-02-15T17:53:16;100087.38;;;15.75;63.71
17649;BME280;8943;51.110;-4.158;2024-02-15T17:55:45;100084.38;;;15.78;63.39
17649;BME280;8943;51.110;-4.158;2024-02-15T17:58:18;100091.59;;;15.77;63.68
17649;BME280;8943;51.110;-4.158;2024-02-15T18:00:47;100094.28;;;15.77;63.52
17649;BME280;8943;51.110;-4.158;2024-02-15T18:03:16;100094.94;;;15.79;63.68
17649;BME280;8943;51.110;-4.158;2024-02-15T18:05:44;100091.59;;;15.77;63.73
17649;BME280;8943;51.110;-4.158;2024-02-15T18:08:13;100101.81;;;15.74;63.63
17649;BME280;8943;51.110;-4.158;2024-02-15T18:10:44;100108.69;;;15.76;63.48
17649;BME280;8943;51.110;-4.158;2024-02-15T18:13:13;100113.22;;;15.76;63.67
17649;BME280;8943;51.110;-4.158;2024-02-15T18:15:43;100121.13;;;15.77;63.83
17649;BME280;8943;51.110;-4.158;2024-02-15T18:18:17;100122.63;;;15.72;63.89
17649;BME280;8943;51.110;-4.158;2024-02-15T18:20:46;100137.03;;;15.70;63.71
17649;BME280;8943;51.110;-4.158;2024-02-15T18:23:14;100138.88;;;15.70;64.17
17649;BME280;8943;51.110;-4.158;2024-02-15T18:25:45;100141.25;;;15.73;63.90
17649;BME280;8943;51.110;-4.158;2024-02-15T18:28:14;100149.97;;;15.75;63.91
17649;BME280;8943;51.110;-4.158;2024-02-15T18:30:49;100151.47;;;15.69;64.17
17649;BME280;8943;51.110;-4.158;2024-02-15T18:33:19;100151.81;;;15.66;63.78
17649;BME280;8943;51.110;-4.158;2024-02-15T18:35:47;100149.69;;;15.60;63.94
17649;BME280;8943;51.110;-4.158;2024-02-15T18:38:16;100138.13;;;15.60;63.93
17649;BME280;8943;51.110;-4.158;2024-02-15T18:40:44;100140.97;;;15.58;63.93
17649;BME280;8943;51.110;-4.158;2024-02-15T18:43:13;100156.91;;;15.60;64.12
17649;BME280;8943;51.110;-4.158;2024-02-15T18:45:42;100147.59;;;15.64;63.95
17649;BME280;8943;51.110;-4.158;2024-02-15T18:48:12;100165.13;;;15.58;63.94
17649;BME280;8943;51.110;-4.158;2024-02-15T18:50:43;100164.31;;;15.58;64.09
17649;BME280;8943;51.110;-4.158;2024-02-15T18:53:13;100175.19;;;15.56;64.02
17649;BME280;8943;51.110;-4.158;2024-02-15T18:55:42;100177.03;;;15.56;63.67
17649;BME280;8943;51.110;-4.158;2024-02-15T18:58:11;100175.81;;;15.50;64.07
17649;BME280;8943;51.110;-4.158;2024-02-15T19:00:39;100172.78;;;15.45;64.31
17649;BME280;8943;51.110;-4.158;2024-02-15T19:03:24;100171.75;;;15.46;64.19
17649;BME280;8943;51.110;-4.158;2024-02-15T19:05:53;100184.03;;;15.49;64.11
17649;BME280;8943;51.110;-4.158;2024-02-15T19:08:22;100192.09;;;15.49;64.06
17649;BME280;8943;51.110;-4.158;2024-02-15T19:10:51;100198.31;;;15.49;64.29
17649;BME280;8943;51.110;-4.158;2024-02-15T19:13:19;100191.94;;;15.50;63.92
17649;BME280;8943;51.110;-4.158;2024-02-15T19:15:49;100199.69;;;15.53;64.10
17649;BME280;8943;51.110;-4.158;2024-02-15T19:18:34;100195.31;;;15.52;64.14
17649;BME280;8943;51.110;-4.158;2024-02-15T19:21:04;100207.75;;;15.53;63.96
17649;BME280;8943;51.110;-4.158;2024-02-15T19:23:37;100195.31;;;15.52;63.87
17649;BME280;8943;51.110;-4.158;2024-02-15T19:26:07;100209.50;;;15.44;63.83
17649;BME280;8943;51.110;-4.158;2024-02-15T19:28:38;100215.19;;;15.41;64.08
17649;BME280;8943;51.110;-4.158;2024-02-15T19:31:13;100198.56;;;15.38;64.33
17649;BME280;8943;51.110;-4.158;2024-02-15T19:33:45;100199.91;;;15.42;64.21
17649;BME280;8943;51.110;-4.158;2024-02-15T19:36:23;100209.34;;;15.46;64.09
17649;BME280;8943;51.110;-4.158;2024-02-15T19:38:53;100203.84;;;15.48;64.07
17649;BME280;8943;51.110;-4.158;2024-02-15T19:41:21;100192.25;;;15.47;63.92
17649;BME280;8943;51.110;-4.158;2024-02-15T19:43:50;100195.31;;;15.52;64.04
17649;BME280;8943;51.110;-4.158;2024-02-15T19:46:19;100201.19;;;15.56;64.04
17649;BME280;8943;51.110;-4.158;2024-02-15T19:48:51;100199.22;;;15.58;64.02
17649;BME280;8943;51.110;-4.158;2024-02-15T19:51:20;100209.63;;;15.61;63.86
17649;BME280;8943;51.110;-4.158;2024-02-15T19:53:50;100216.16;;;15.58;63.94
17649;BME280;8943;51.110;-4.158;2024-02-15T19:56:19;100223.22;;;15.59;63.89
17649;BME280;8943;51.110;-4.158;2024-02-15T19:58:47;100220.69;;;15.58;64.03
17649;BME280;8943;51.110;-4.158;2024-02-15T20:01:16;100230.44;;;15.59;63.88
17649;BME280;8943;51.110;-4.158;2024-02-15T20:03:45;100229.75;;;15.57;64.02
17649;BME280;8943;51.110;-4.158;2024-02-15T20:06:15;100221.84;;;15.55;63.96
17649;BME280;8943;51.110;-4.158;2024-02-15T20:08:45;100219.84;;;15.57;63.76
17649;BME280;8943;51.110;-4.158;2024-02-15T20:11:14;100220.81;;;15.56;63.91
17649;BME280;8943;51.110;-4.158;2024-02-15T20:13:42;100220.00;;;15.56;63.78
17649;BME280;8943;51.110;-4.158;2024-02-15T20:16:12;100223.84;;;15.53;64.05
17649;BME280;8943;51.110;-4.158;2024-02-15T20:18:43;100223.84;;;15.53;64.04
17649;BME280;8943;51.110;-4.158;2024-02-15T20:21:12;100228.59;;;15.59;64.11
17649;BME280;8943;51.110;-4.158;2024-02-15T20:23:42;100236.47;;;15.61;63.92
17649;BME280;8943;51.110;-4.158;2024-02-15T20:26:12;100235.13;;;15.57;63.95
17649;BME280;8943;51.110;-4.158;2024-02-15T20:28:42;100245.34;;;15.53;64.05
17649;BME280;8943;51.110;-4.158;2024-02-15T20:31:11;100252.22;;;15.56;64.29
17649;BME280;8943;51.110;-4.158;2024-02-15T20:33:40;100254.06;;;15.55;64.04
17649;BME280;8943;51.110;-4.158;2024-02-15T20:36:10;100256.38;;;15.50;64.14
17649;BME280;8943;51.110;-4.158;2024-02-15T20:38:42;100264.44;;;15.50;64.25
17649;BME280;8943;51.110;-4.158;2024-02-15T20:41:10;100265.06;;;15.44;64.14
17649;BME280;8943;51.110;-4.158;2024-02-15T20:43:41;100266.53;;;15.38;64.29
17649;BME280;8943;51.110;-4.158;2024-02-15T20:46:09;100269.22;;;15.38;64.22
17649;BME280;8943;51.110;-4.158;2024-02-15T20:48:40;100280.78;;;15.39;63.98
17649;BME280;8943;51.110;-4.158;2024-02-15T20:51:08;100275.72;;;15.36;64.45
17649;BME280;8943;51.110;-4.158;2024-02-15T20:53:38;100287.91;;;15.30;64.24
17649;BME280;8943;51.110;-4.158;2024-02-15T20:56:10;100290.75;;;15.29;64.32
17649;BME280;8943;51.110;-4.158;2024-02-15T20:58:39;100281.16;;;15.26;64.38
17649;BME280;8943;51.110;-4.158;2024-02-15T21:01:12;100289.09;;;15.28;64.45
17649;BME280;8943;51.110;-4.158;2024-02-15T21:03:41;100287.69;;;15.24;64.42
17649;BME280;8943;51.110;-4.158;2024-02-15T21:06:15;100290.75;;;15.29;64.27
17649;BME280;8943;51.110;-4.158;2024-02-15T21:08:48;100297.50;;;15.33;64.33
17649;BME280;8943;51.110;-4.158;2024-02-15T21:11:21;100301.72;;;15.35;64.62
17649;BME280;8943;51.110;-4.158;2024-02-15T21:13:51;100297.50;;;15.33;64.03
17649;BME280;8943;51.110;-4.158;2024-02-15T21:16:21;100305.56;;;15.33;64.36
17649;BME280;8943;51.110;-4.158;2024-02-15T21:18:50;100282.84;;;15.27;64.36
17649;BME280;8943;51.110;-4.158;2024-02-15T21:21:20;100282.84;;;15.27;64.20
17649;BME280;8943;51.110;-4.158;2024-02-15T21:24:00;100287.47;;;15.35;64.40
17649;BME280;8943;51.110;-4.158;2024-02-15T21:26:30;100288.28;;;15.35;64.40
17649;BME280;8943;51.110;-4.158;2024-02-15T21:28:59;100292.38;;;15.39;64.50
17649;BME280;8943;51.110;-4.158;2024-02-15T21:31:27;100301.94;;;15.42;64.15
17649;BME280;8943;51.110;-4.158;2024-02-15T21:33:56;100302.94;;;15.41;64.27
17649;BME280;8943;51.110;-4.158;2024-02-15T21:36:27;100304.78;;;15.40;64.03
17649;BME280;8943;51.110;-4.158;2024-02-15T21:38:55;100301.94;;;15.42;63.87
17649;BME280;8943;51.110;-4.158;2024-02-15T21:41:25;100312.66;;;15.42;64.12
17649;BME280;8943;51.110;-4.158;2024-02-15T21:43:55;100307.94;;;15.36;64.06
17649;BME280;8943;51.110;-4.158;2024-02-15T21:46:24;100311.06;;;15.31;64.09
17649;BME280;8943;51.110;-4.158;2024-02-15T21:48:54;100319.56;;;15.27;64.13
17649;BME280;8943;51.110;-4.158;2024-02-15T21:51:23;100306.94;;;15.19;64.22
17649;BME280;8943;51.110;-4.158;2024-02-15T21:53:52;100312.31;;;15.19;64.04
17649;BME280;8943;51.110;-4.158;2024-02-15T21:56:20;100314.75;;;15.12;64.56
17649;BME280;8943;51.110;-4.158;2024-02-15T21:58:51;100311.22;;;15.12;64.47
17649;BME280;8943;51.110;-4.158;2024-02-15T22:01:21;100308.41;;;15.13;64.52
17649;BME280;8943;51.110;-4.158;2024-02-15T22:03:52;100309.47;;;15.20;64.53
17649;BME280;8943;51.110;-4.158;2024-02-15T22:06:20;100312.69;;;15.24;64.55
17649;BME280;8943;51.110;-4.158;2024-02-15T22:08:49;100312.38;;;15.27;64.39
17649;BME280;8943;51.110;-4.158;2024-02-15T22:11:18;100315.22;;;15.26;64.40
17649;BME280;8943;51.110;-4.158;2024-02-15T22:13:50;100313.69;;;15.23;64.63
